createdAt,value
2023-04-09T00:01:13.848Z,5.90
2023-04-09T00:03:43.100Z,5.80
2023-04-09T00:06:14.025Z,5.80
2023-04-09T00:08:45.079Z,5.70
2023-04-09T00:11:15.014Z,5.60
2023-04-09T00:13:43.633Z,5.60
2023-04-09T00:16:13.135Z,5.50
2023-04-09T00:18:42.372Z,5.50
2023-04-09T00:21:11.876Z,5.50
2023-04-09T00:23:41.335Z,5.40
2023-04-09T00:26:12.332Z,5.40
2023-04-09T00:28:41.768Z,5.40
2023-04-09T00:31:11.451Z,5.40
2023-04-09T00:33:40.445Z,5.40
2023-04-09T00:36:10.000Z,5.30
2023-04-09T00:38:41.202Z,5.40
2023-04-09T00:41:11.679Z,5.40
2023-04-09T00:43:41.037Z,5.30
2023-04-09T00:46:10.279Z,5.30
2023-04-09T00:48:39.413Z,5.30
2023-04-09T00:51:09.765Z,5.30
2023-04-09T00:53:38.870Z,5.30
2023-04-09T00:56:08.825Z,5.30
2023-04-09T00:58:39.658Z,5.30
2023-04-09T01:01:08.776Z,5.30
2023-04-09T01:03:38.362Z,5.30
2023-04-09T01:06:12.486Z,5.40
2023-04-09T01:08:56.144Z,5.40
2023-04-09T01:11:34.428Z,5.50
2023-04-09T01:14:10.749Z,5.50
2023-04-09T01:16:46.457Z,5.50
2023-04-09T01:19:26.612Z,5.60
2023-04-09T01:21:57.348Z,5.60
2023-04-09T01:24:39.628Z,5.60
2023-04-09T01:27:09.642Z,5.70
2023-04-09T01:30:06.836Z,5.70
2023-04-09T01:32:38.924Z,5.70
2023-04-09T01:35:10.487Z,5.60
2023-04-09T01:37:41.170Z,5.50
2023-04-09T01:40:11.572Z,5.50
2023-04-09T01:42:42.230Z,5.30
2023-04-09T01:45:14.421Z,5.20
2023-04-09T01:47:44.990Z,5.10
2023-04-09T01:50:14.697Z,5.10
2023-04-09T01:52:44.547Z,5.00
2023-04-09T01:55:14.155Z,5.00
2023-04-09T01:57:42.912Z,5.10
2023-04-09T02:00:15.300Z,5.10
2023-04-09T02:02:56.486Z,5.10
2023-04-09T02:05:29.202Z,5.20
2023-04-09T02:08:00.199Z,5.10
2023-04-09T02:10:32.783Z,5.10
2023-04-09T02:13:05.201Z,5.10
2023-04-09T02:15:38.368Z,5.10
2023-04-09T02:18:22.121Z,5.00
2023-04-09T02:20:51.852Z,5.00
2023-04-09T02:23:20.953Z,5.00
2023-04-09T02:25:50.245Z,5.00
2023-04-09T02:28:19.547Z,5.00
2023-04-09T02:30:50.254Z,5.00
2023-04-09T02:33:19.387Z,5.00
2023-04-09T02:35:48.907Z,4.90
2023-04-09T02:38:18.385Z,5.00
2023-04-09T02:40:47.346Z,4.90
2023-04-09T02:43:16.546Z,4.90
2023-04-09T02:45:46.053Z,4.90
2023-04-09T02:48:17.426Z,4.80
2023-04-09T02:50:47.170Z,4.80
2023-04-09T02:53:15.849Z,4.80
2023-04-09T02:55:44.729Z,4.90
2023-04-09T02:58:13.819Z,4.90
2023-04-09T03:00:46.105Z,4.90
2023-04-09T03:03:16.852Z,4.90
2023-04-09T03:05:46.314Z,4.90
2023-04-09T03:08:15.296Z,4.90
2023-04-09T03:10:45.356Z,4.90
2023-04-09T03:13:14.329Z,4.90
2023-04-09T03:15:43.558Z,4.90
2023-04-09T03:18:12.594Z,4.90
2023-04-09T03:20:43.394Z,4.80
2023-04-09T03:23:14.933Z,4.80
2023-04-09T03:25:48.811Z,4.70
2023-04-09T03:28:19.505Z,4.70
2023-04-09T03:30:53.767Z,4.70
2023-04-09T03:33:22.853Z,4.80
2023-04-09T03:35:57.783Z,4.80
2023-04-09T03:38:50.257Z,4.90
2023-04-09T03:41:40.416Z,4.90
2023-04-09T03:44:13.297Z,4.90
2023-04-09T03:46:59.934Z,5.00
2023-04-09T03:49:30.791Z,5.00
2023-04-09T03:52:10.389Z,5.10
2023-04-09T03:54:43.899Z,5.10
2023-04-09T03:57:20.778Z,5.00
2023-04-09T03:59:53.297Z,5.10
2023-04-09T04:02:27.567Z,5.10
2023-04-09T04:05:04.486Z,5.10
2023-04-09T04:07:44.238Z,5.10
2023-04-09T04:10:18.312Z,5.10
2023-04-09T04:12:49.430Z,5.10
2023-04-09T04:15:24.840Z,5.10
2023-04-09T04:17:58.053Z,5.00
2023-04-09T04:20:39.525Z,5.10
2023-04-09T04:23:14.206Z,5.00
2023-04-09T04:25:53.309Z,5.10
2023-04-09T04:28:30.289Z,5.10
2023-04-09T04:30:59.740Z,5.10
2023-04-09T04:33:31.065Z,5.10
2023-04-09T04:36:07.413Z,5.00
2023-04-09T04:38:45.166Z,5.10
2023-04-09T04:41:35.404Z,5.10
2023-04-09T04:44:12.126Z,5.10
2023-04-09T04:46:42.716Z,5.10
2023-04-09T04:49:13.431Z,5.10
2023-04-09T04:51:48.493Z,5.10
2023-04-09T04:54:20.046Z,5.10
2023-04-09T04:56:53.416Z,5.10
2023-04-09T04:59:42.457Z,5.20
2023-04-09T05:02:14.636Z,5.20
2023-04-09T05:04:56.973Z,5.30
2023-04-09T05:07:35.250Z,5.30
2023-04-09T05:10:06.910Z,5.30
2023-04-09T05:12:40.180Z,5.30
2023-04-09T05:15:11.034Z,5.40
2023-04-09T05:17:40.444Z,5.40
2023-04-09T05:20:11.251Z,5.40
2023-04-09T05:23:06.099Z,5.40
2023-04-09T05:25:43.183Z,5.50
2023-04-09T05:28:30.722Z,5.50
2023-04-09T05:31:13.525Z,5.50
2023-04-09T05:33:49.488Z,5.50
2023-04-09T05:36:24.395Z,5.50
2023-04-09T05:38:54.713Z,5.50
2023-04-09T05:41:25.519Z,5.50
2023-04-09T05:44:11.261Z,5.50
2023-04-09T05:46:42.045Z,5.50
2023-04-09T05:49:11.021Z,5.50
2023-04-09T05:51:43.572Z,5.50
2023-04-09T05:54:13.672Z,5.50
2023-04-09T05:56:44.721Z,5.50
2023-04-09T05:59:14.400Z,5.50
2023-04-09T06:01:43.288Z,5.50
2023-04-09T06:04:12.888Z,5.40
2023-04-09T06:06:42.069Z,5.50
2023-04-09T06:09:10.949Z,5.50
2023-04-09T06:11:40.239Z,5.50
2023-04-09T06:14:12.613Z,5.40
2023-04-09T06:16:41.665Z,5.50
2023-04-09T06:19:12.731Z,5.60
2023-04-09T06:21:42.895Z,5.60
2023-04-09T06:24:12.557Z,5.40
2023-04-09T06:26:42.021Z,5.60
2023-04-09T06:29:12.893Z,5.70
2023-04-09T06:31:42.422Z,5.70
2023-04-09T06:34:11.428Z,5.60
2023-04-09T06:36:41.042Z,5.60
2023-04-09T06:39:10.073Z,5.60
2023-04-09T06:41:39.526Z,5.50
2023-04-09T06:44:24.985Z,5.60
2023-04-09T06:46:56.362Z,5.60
2023-04-09T06:49:25.846Z,5.60
2023-04-09T06:51:55.796Z,5.50
2023-04-09T06:54:24.578Z,5.40
2023-04-09T06:56:53.578Z,5.40
2023-04-09T06:59:24.473Z,5.50
2023-04-09T07:01:54.648Z,5.50
2023-04-09T07:04:23.888Z,5.60
2023-04-09T07:06:53.395Z,5.60
2023-04-09T07:09:22.364Z,5.50
2023-04-09T07:11:52.777Z,5.50
2023-04-09T07:14:22.185Z,5.40
2023-04-09T07:16:53.360Z,5.50
2023-04-09T07:19:23.050Z,5.50
2023-04-09T07:21:52.062Z,5.50
2023-04-09T07:24:21.571Z,5.50
2023-04-09T07:26:52.516Z,5.50
2023-04-09T07:29:23.046Z,5.50
2023-04-09T07:31:54.108Z,5.50
2023-04-09T07:34:22.968Z,5.50
2023-04-09T07:36:54.295Z,5.50
2023-04-09T07:39:24.449Z,5.60
2023-04-09T07:41:53.336Z,5.60
2023-04-09T07:44:22.151Z,5.60
2023-04-09T07:46:51.330Z,5.60
2023-04-09T07:49:21.845Z,5.60
2023-04-09T07:51:51.201Z,5.70
2023-04-09T07:54:21.612Z,5.70
2023-04-09T07:56:51.299Z,5.70
2023-04-09T07:59:20.308Z,5.70
2023-04-09T08:01:49.317Z,5.60
2023-04-09T08:04:19.451Z,5.70
2023-04-09T08:06:51.123Z,5.70
2023-04-09T08:09:20.772Z,5.70
2023-04-09T08:11:51.247Z,5.60
2023-04-09T08:14:20.833Z,5.70
2023-04-09T08:16:50.649Z,5.60
2023-04-09T08:19:20.569Z,5.60
2023-04-09T08:21:52.495Z,5.50
2023-04-09T08:24:21.851Z,5.50
2023-04-09T08:26:51.095Z,5.60
2023-04-09T08:29:20.192Z,5.70
2023-04-09T08:31:48.930Z,5.80
2023-04-09T08:34:21.428Z,6.00
2023-04-09T08:36:52.177Z,6.10
2023-04-09T08:39:21.631Z,6.30
2023-04-09T08:41:51.201Z,6.40
2023-04-09T08:44:22.681Z,6.30
2023-04-09T08:46:51.712Z,6.20
2023-04-09T08:49:20.391Z,6.20
2023-04-09T08:51:51.115Z,6.20
2023-04-09T08:54:20.595Z,6.20
2023-04-09T08:56:49.819Z,6.10
2023-04-09T08:59:20.063Z,6.00
2023-04-09T09:01:54.749Z,6.00
2023-04-09T09:04:23.966Z,6.10
2023-04-09T09:06:56.593Z,6.10
2023-04-09T09:09:27.707Z,6.00
2023-04-09T09:11:58.196Z,6.00
2023-04-09T09:14:28.328Z,6.00
2023-04-09T09:17:08.819Z,6.00
2023-04-09T09:19:38.347Z,6.00
2023-04-09T09:22:09.716Z,5.90
2023-04-09T09:24:50.286Z,6.00
2023-04-09T09:27:34.537Z,6.10
2023-04-09T09:30:03.743Z,6.10
2023-04-09T09:32:33.257Z,6.10
2023-04-09T09:35:07.466Z,6.20
2023-04-09T09:37:38.338Z,6.20
2023-04-09T09:40:09.285Z,6.20
2023-04-09T09:42:38.228Z,6.30
2023-04-09T09:45:20.763Z,6.40
2023-04-09T09:47:51.441Z,6.40
2023-04-09T09:50:21.585Z,6.50
2023-04-09T09:52:56.322Z,6.40
2023-04-09T09:55:29.208Z,6.40
2023-04-09T09:58:00.343Z,6.30
2023-04-09T10:00:31.233Z,6.20
2023-04-09T10:03:12.704Z,6.20
2023-04-09T10:05:43.354Z,6.30
2023-04-09T10:08:15.381Z,6.20
2023-04-09T10:10:45.214Z,6.30
2023-04-09T10:13:18.690Z,6.60
2023-04-09T10:15:48.256Z,6.80
2023-04-09T10:18:18.635Z,6.70
2023-04-09T10:20:57.210Z,6.70
2023-04-09T10:23:35.541Z,6.70
2023-04-09T10:26:04.818Z,6.70
2023-04-09T10:28:34.097Z,6.90
2023-04-09T10:31:03.226Z,7.10
2023-04-09T10:33:32.360Z,7.20
2023-04-09T10:36:06.019Z,7.20
2023-04-09T10:38:38.409Z,7.40
2023-04-09T10:41:17.959Z,7.70
2023-04-09T10:43:49.894Z,7.50
2023-04-09T10:46:37.472Z,7.40
2023-04-09T10:49:14.111Z,7.30
2023-04-09T10:51:45.522Z,7.40
2023-04-09T10:54:50.143Z,7.70
2023-04-09T10:57:24.757Z,7.70
2023-04-09T10:59:56.123Z,7.50
2023-04-09T11:03:08.734Z,7.50
2023-04-09T11:05:39.715Z,7.30
2023-04-09T11:08:13.228Z,7.20
2023-04-09T11:10:45.166Z,7.30
2023-04-09T11:13:14.670Z,7.20
2023-04-09T11:15:43.965Z,7.10
2023-04-09T11:18:16.696Z,7.10
2023-04-09T11:20:45.533Z,7.00
2023-04-09T11:23:15.676Z,7.00
2023-04-09T11:25:53.794Z,7.00
2023-04-09T11:28:23.314Z,7.00
2023-04-09T11:30:53.585Z,7.00
2023-04-09T11:33:22.914Z,7.00
2023-04-09T11:35:53.581Z,6.90
2023-04-09T11:38:22.415Z,7.00
2023-04-09T11:40:59.335Z,7.10
2023-04-09T11:43:29.092Z,7.20
2023-04-09T11:45:58.521Z,7.20
2023-04-09T11:48:27.768Z,7.30
2023-04-09T11:50:57.255Z,7.40
2023-04-09T11:53:32.083Z,7.50
2023-04-09T11:56:03.286Z,7.40
2023-04-09T11:58:32.605Z,7.50
2023-04-09T12:01:01.982Z,7.70
2023-04-09T12:03:34.119Z,7.80
2023-04-09T12:06:04.478Z,7.80
2023-04-09T12:08:35.711Z,7.90
2023-04-09T12:11:24.361Z,7.90
2023-04-09T12:14:01.743Z,7.90
2023-04-09T12:16:37.804Z,8.10
2023-04-09T12:19:09.637Z,8.00
2023-04-09T12:21:49.482Z,7.90
2023-04-09T12:24:20.303Z,7.90
2023-04-09T12:26:51.969Z,8.00
2023-04-09T12:29:22.914Z,8.10
2023-04-09T12:31:52.141Z,8.20
2023-04-09T12:34:21.108Z,8.20
2023-04-09T12:36:50.103Z,8.30
2023-04-09T12:39:21.325Z,8.40
2023-04-09T12:41:54.723Z,8.30
2023-04-09T12:44:23.732Z,8.30
2023-04-09T12:46:52.700Z,8.20
2023-04-09T12:49:22.313Z,8.10
2023-04-09T12:51:51.610Z,8.10
2023-04-09T12:54:21.230Z,8.10
2023-04-09T12:56:52.150Z,8.10
2023-04-09T12:59:21.756Z,8.20
2023-04-09T13:01:51.131Z,8.10
2023-04-09T13:04:20.710Z,8.30
2023-04-09T13:06:50.694Z,8.40
2023-04-09T13:09:19.775Z,8.40
2023-04-09T13:11:48.772Z,8.40
2023-04-09T13:14:19.152Z,8.30
2023-04-09T13:16:48.489Z,8.20
2023-04-09T13:19:18.113Z,8.10
2023-04-09T13:21:47.919Z,8.10
2023-04-09T13:24:17.197Z,8.20
2023-04-09T13:26:46.384Z,8.20
2023-04-09T13:29:15.365Z,8.30
2023-04-09T13:31:46.150Z,8.30
2023-04-09T13:34:15.221Z,8.30
2023-04-09T13:36:44.329Z,8.30
2023-04-09T13:39:13.256Z,8.10
2023-04-09T13:41:42.158Z,8.10
2023-04-09T13:44:11.696Z,8.10
2023-04-09T13:46:40.760Z,8.10
2023-04-09T13:49:11.583Z,8.10
2023-04-09T13:51:40.836Z,8.20
2023-04-09T13:54:11.665Z,8.30
2023-04-09T13:56:40.858Z,8.40
2023-04-09T13:59:10.030Z,8.40
2023-04-09T14:01:39.295Z,8.30
2023-04-09T14:04:08.570Z,8.20
2023-04-09T14:06:39.543Z,8.20
2023-04-09T14:09:09.022Z,8.30
2023-04-09T14:11:38.582Z,8.20
2023-04-09T14:14:07.993Z,7.90
2023-04-09T14:16:37.391Z,7.80
2023-04-09T14:19:07.029Z,7.70
2023-04-09T14:21:36.901Z,7.50
2023-04-09T14:24:08.378Z,7.40
2023-04-09T14:26:38.086Z,7.40
2023-04-09T14:29:07.155Z,7.30
2023-04-09T14:31:36.048Z,7.30
2023-04-09T14:34:05.160Z,7.20
2023-04-09T14:36:34.160Z,7.30
2023-04-09T14:39:03.122Z,7.20
2023-04-09T14:41:37.280Z,7.30
2023-04-09T14:44:06.501Z,7.20
2023-04-09T14:46:35.650Z,7.20
2023-04-09T14:49:05.074Z,7.10
2023-04-09T14:51:34.761Z,7.10
2023-04-09T14:54:03.548Z,7.10
2023-04-09T14:56:34.047Z,7.20
2023-04-09T14:59:04.146Z,7.20
2023-04-09T15:01:34.308Z,7.10
2023-04-09T15:04:03.843Z,7.20
2023-04-09T15:06:33.429Z,7.20
2023-04-09T15:09:02.877Z,7.10
2023-04-09T15:11:33.830Z,7.20
2023-04-09T15:14:03.723Z,7.10
2023-04-09T15:16:37.812Z,7.20
2023-04-09T15:19:07.874Z,7.20
2023-04-09T15:21:37.270Z,7.20
2023-04-09T15:24:06.428Z,7.10
2023-04-09T15:26:38.068Z,7.10
2023-04-09T15:29:09.444Z,7.10
2023-04-09T15:31:41.314Z,7.20
2023-04-09T15:34:11.034Z,7.20
2023-04-09T15:36:40.832Z,7.20
2023-04-09T15:39:10.256Z,7.20
2023-04-09T15:41:41.321Z,7.20
2023-04-09T15:44:10.732Z,7.20
2023-04-09T15:46:40.598Z,7.10
2023-04-09T15:49:09.797Z,7.20
2023-04-09T15:51:39.351Z,7.20
2023-04-09T15:54:09.965Z,7.20
2023-04-09T15:56:41.684Z,7.20
2023-04-09T15:59:11.341Z,7.20
2023-04-09T16:01:40.572Z,7.30
2023-04-09T16:04:11.197Z,7.30
2023-04-09T16:06:40.704Z,7.30
2023-04-09T16:09:09.785Z,7.30
2023-04-09T16:11:46.133Z,7.30
2023-04-09T16:14:15.069Z,7.20
2023-04-09T16:16:47.970Z,7.20
2023-04-09T16:19:17.919Z,7.20
2023-04-09T16:21:47.677Z,7.10
2023-04-09T16:24:17.643Z,7.20
2023-04-09T16:26:49.202Z,7.20
2023-04-09T16:29:18.620Z,7.10
2023-04-09T16:31:48.032Z,7.10
2023-04-09T16:34:17.444Z,7.10
2023-04-09T16:36:47.404Z,7.10
2023-04-09T16:39:16.951Z,7.00
2023-04-09T16:41:47.931Z,7.00
2023-04-09T16:44:17.115Z,7.00
2023-04-09T16:46:46.108Z,7.00
2023-04-09T16:49:16.142Z,7.00
2023-04-09T16:51:46.533Z,7.00
2023-04-09T16:54:16.402Z,7.00
2023-04-09T16:56:49.153Z,7.00
2023-04-09T16:59:21.747Z,7.00
2023-04-09T17:01:52.318Z,7.00
2023-04-09T17:04:21.799Z,6.90
2023-04-09T17:06:52.148Z,6.90
2023-04-09T17:09:21.206Z,7.00
2023-04-09T17:11:53.418Z,6.90
2023-04-09T17:14:22.705Z,6.90
2023-04-09T17:16:53.171Z,6.90
2023-04-09T17:19:22.552Z,6.90
2023-04-09T17:21:52.271Z,6.90
2023-04-09T17:24:21.551Z,6.90
2023-04-09T17:26:52.401Z,6.90
2023-04-09T17:29:21.810Z,6.90
2023-04-09T17:31:53.412Z,6.90
2023-04-09T17:34:22.478Z,6.90
2023-04-09T17:36:57.113Z,6.90
2023-04-09T17:39:26.863Z,6.90
2023-04-09T17:41:58.788Z,6.90
2023-04-09T17:44:28.350Z,6.90
2023-04-09T17:46:57.641Z,6.80
2023-04-09T17:49:27.656Z,6.80
2023-04-09T17:51:58.301Z,6.90
2023-04-09T17:54:28.814Z,6.90
2023-04-09T17:56:59.707Z,6.90
2023-04-09T17:59:29.405Z,6.90
2023-04-09T18:01:59.255Z,6.80
2023-04-09T18:04:29.012Z,6.90
2023-04-09T18:06:58.214Z,6.80
2023-04-09T18:09:28.134Z,6.90
2023-04-09T18:11:58.155Z,6.80
2023-04-09T18:14:31.551Z,6.90
2023-04-09T18:17:01.484Z,6.80
2023-04-09T18:19:30.511Z,6.90
2023-04-09T18:21:59.619Z,6.90
2023-04-09T18:24:29.182Z,6.90
2023-04-09T18:26:59.390Z,6.90
2023-04-09T18:29:30.565Z,6.80
2023-04-09T18:32:00.644Z,6.80
2023-04-09T18:34:30.044Z,6.80
2023-04-09T18:36:59.402Z,6.80
2023-04-09T18:39:28.995Z,6.80
2023-04-09T18:41:58.337Z,6.80
2023-04-09T18:44:29.402Z,6.80
2023-04-09T18:47:00.066Z,6.80
2023-04-09T18:49:29.207Z,6.80
2023-04-09T18:51:58.474Z,6.80
2023-04-09T18:54:28.003Z,6.90
2023-04-09T18:56:57.530Z,6.80
2023-04-09T18:59:26.909Z,6.80
2023-04-09T19:01:59.151Z,6.70
2023-04-09T19:04:28.781Z,6.60
2023-04-09T19:06:58.353Z,6.70
2023-04-09T19:09:28.021Z,6.70
2023-04-09T19:11:58.265Z,6.70
2023-04-09T19:14:28.536Z,6.70
2023-04-09T19:17:00.214Z,6.70
2023-04-09T19:19:32.744Z,6.70
2023-04-09T19:22:02.418Z,6.70
2023-04-09T19:24:34.145Z,6.70
2023-04-09T19:27:08.376Z,6.70
2023-04-09T19:29:37.684Z,6.70
2023-04-09T19:32:09.866Z,6.70
2023-04-09T19:34:39.264Z,6.70
2023-04-09T19:37:08.232Z,6.70
2023-04-09T19:39:37.978Z,6.70
2023-04-09T19:42:06.620Z,6.60
2023-04-09T19:44:35.924Z,6.60
2023-04-09T19:47:05.631Z,6.50
2023-04-09T19:49:36.390Z,6.50
2023-04-09T19:52:07.432Z,6.40
2023-04-09T19:54:37.068Z,6.40
2023-04-09T19:57:06.095Z,6.30
2023-04-09T19:59:40.324Z,6.30
2023-04-09T20:02:09.840Z,6.20
2023-04-09T20:04:40.942Z,6.20
2023-04-09T20:07:10.715Z,6.20
2023-04-09T20:09:41.863Z,6.20
2023-04-09T20:12:13.671Z,6.20
2023-04-09T20:14:43.264Z,6.10
2023-04-09T20:17:12.785Z,6.20
2023-04-09T20:19:43.399Z,6.20
2023-04-09T20:22:12.946Z,6.30
2023-04-09T20:24:41.932Z,6.30
2023-04-09T20:27:11.690Z,6.30
2023-04-09T20:29:41.024Z,6.30
2023-04-09T20:32:10.130Z,6.20
2023-04-09T20:34:38.976Z,6.20
2023-04-09T20:37:09.814Z,6.10
2023-04-09T20:39:38.727Z,6.20
2023-04-09T20:42:08.384Z,6.20
2023-04-09T20:44:38.526Z,6.20
2023-04-09T20:47:08.479Z,6.20
2023-04-09T20:49:37.821Z,6.10
2023-04-09T20:52:09.391Z,6.10
2023-04-09T20:54:40.929Z,6.30
2023-04-09T20:57:12.092Z,6.30
2023-04-09T20:59:42.724Z,6.20
2023-04-09T21:02:14.331Z,6.10
2023-04-09T21:04:43.529Z,6.20
2023-04-09T21:07:13.195Z,6.10
2023-04-09T21:09:44.524Z,6.10
2023-04-09T21:12:13.661Z,6.00
2023-04-09T21:14:42.594Z,5.90
2023-04-09T21:17:11.563Z,5.90
2023-04-09T21:19:41.355Z,6.00
2023-04-09T21:22:10.473Z,6.00
2023-04-09T21:24:39.584Z,6.00
2023-04-09T21:27:11.498Z,6.10
2023-04-09T21:29:40.832Z,6.00
2023-04-09T21:32:10.273Z,6.00
2023-04-09T21:34:39.851Z,6.10
2023-04-09T21:37:10.619Z,6.00
2023-04-09T21:39:40.132Z,6.10
2023-04-09T21:42:11.245Z,6.10
2023-04-09T21:44:40.415Z,5.90
2023-04-09T21:47:09.807Z,5.90
2023-04-09T21:49:40.936Z,5.80
2023-04-09T21:52:15.091Z,5.80
2023-04-09T21:54:45.280Z,5.70
2023-04-09T21:57:16.761Z,5.60
2023-04-09T21:59:46.238Z,5.60
2023-04-09T22:02:15.406Z,5.70
2023-04-09T22:04:45.028Z,5.60
2023-04-09T22:07:15.183Z,5.70
2023-04-09T22:09:44.103Z,5.70
2023-04-09T22:12:14.791Z,5.80
2023-04-09T22:14:43.963Z,5.80
2023-04-09T22:17:13.074Z,5.90
2023-04-09T22:19:42.624Z,5.80
2023-04-09T22:22:13.781Z,5.90
2023-04-09T22:24:42.993Z,6.00
2023-04-09T22:27:12.468Z,5.90
2023-04-09T22:29:46.003Z,5.80
2023-04-09T22:32:15.605Z,5.80
2023-04-09T22:34:44.616Z,5.60
2023-04-09T22:37:13.175Z,5.50
2023-04-09T22:39:41.892Z,5.40
2023-04-09T22:42:11.502Z,5.40
2023-04-09T22:44:43.993Z,5.30
2023-04-09T22:47:13.337Z,5.20
2023-04-09T22:49:42.346Z,5.10
2023-04-09T22:52:11.777Z,5.00
2023-04-09T22:54:43.390Z,5.10
2023-04-09T22:57:12.388Z,5.10
2023-04-09T22:59:42.947Z,5.10
2023-04-09T23:02:12.270Z,5.10
2023-04-09T23:04:42.781Z,5.00
2023-04-09T23:07:12.352Z,4.90
2023-04-09T23:09:41.598Z,4.90
2023-04-09T23:12:10.640Z,5.00
2023-04-09T23:14:39.316Z,5.00
2023-04-09T23:17:10.020Z,5.00
2023-04-09T23:19:38.701Z,5.00
2023-04-09T23:22:08.302Z,5.00
2023-04-09T23:24:37.010Z,4.80
2023-04-09T23:27:05.995Z,4.80
2023-04-09T23:29:35.161Z,4.80
2023-04-09T23:32:04.604Z,4.80
2023-04-09T23:34:35.400Z,4.80
2023-04-09T23:37:04.447Z,4.70
2023-04-09T23:39:35.074Z,4.70
2023-04-09T23:42:04.150Z,4.60
2023-04-09T23:44:34.378Z,4.60
2023-04-09T23:47:06.193Z,4.70
2023-04-09T23:49:36.488Z,4.70
2023-04-09T23:52:05.747Z,4.50
2023-04-09T23:54:34.716Z,4.40
2023-04-09T23:57:03.835Z,4.40
2023-04-09T23:59:36.579Z,4.30
